sensor_id;sensor_type;location;lat;lon;timestamp;P1;durP1;ratioP1;P2;durP2;ratioP2
21392;SDS011;10857;52.228;21.026;2023-03-31T05:50:55;31.53;;;20.23;;
21392;SDS011;10857;52.228;21.026;2023-03-31T05:53:24;31.17;;;19.83;;
21392;SDS011;10857;52.228;21.026;2023-03-31T05:55:59;30.57;;;19.27;;
21392;SDS011;10857;52.228;21.026;2023-03-31T05:58:28;31.03;;;19.23;;
21392;SDS011;10857;52.228;21.026;2023-03-31T06:01:06;29.43;;;19.87;;
21392;SDS011;10857;52.228;21.026;2023-03-31T06:03:36;30.83;;;19.77;;
21392;SDS011;10857;52.228;21.026;2023-03-31T06:06:04;30.40;;;19.73;;
21392;SDS011;10857;52.228;21.026;2023-03-31T06:08:34;34.43;;;21.20;;
21392;SDS011;10857;52.228;21.026;2023-03-31T06:11:03;33.50;;;20.93;;
21392;SDS011;10857;52.228;21.026;2023-03-31T06:13:32;32.20;;;21.53;;
21392;SDS011;10857;52.228;21.026;2023-03-31T06:16:00;37.97;;;21.97;;
21392;SDS011;10857;52.228;21.026;2023-03-31T06:18:28;34.10;;;21.00;;
21392;SDS011;10857;52.228;21.026;2023-03-31T06:20:56;34.03;;;21.97;;
21392;SDS011;10857;52.228;21.026;2023-03-31T06:23:24;32.07;;;20.77;;
21392;SDS011;10857;52.228;21.026;2023-03-31T06:25:52;36.37;;;21.30;;
21392;SDS011;10857;52.228;21.026;2023-03-31T06:28:19;30.70;;;20.83;;
21392;SDS011;10857;52.228;21.026;2023-03-31T06:30:47;31.70;;;21.40;;
21392;SDS011;10857;52.228;21.026;2023-03-31T06:33:14;32.70;;;20.57;;
21392;SDS011;10857;52.228;21.026;2023-03-31T06:35:42;31.57;;;20.93;;
21392;SDS011;10857;52.228;21.026;2023-03-31T06:38:09;34.67;;;21.47;;
21392;SDS011;10857;52.228;21.026;2023-03-31T06:40:36;31.23;;;19.77;;
21392;SDS011;10857;52.228;21.026;2023-03-31T06:43:04;30.33;;;19.73;;
21392;SDS011;10857;52.228;21.026;2023-03-31T06:45:31;34.73;;;20.33;;
21392;SDS011;10857;52.228;21.026;2023-03-31T06:47:58;34.50;;;20.77;;
21392;SDS011;10857;52.228;21.026;2023-03-31T06:50:26;35.47;;;20.83;;
21392;SDS011;10857;52.228;21.026;2023-03-31T06:52:53;31.07;;;19.83;;
21392;SDS011;10857;52.228;21.026;2023-03-31T06:55:21;33.20;;;21.77;;
21392;SDS011;10857;52.228;21.026;2023-03-31T06:57:48;42.53;;;26.47;;
21392;SDS011;10857;52.228;21.026;2023-03-31T07:00:16;33.33;;;21.70;;
21392;SDS011;10857;52.228;21.026;2023-03-31T07:02:48;33.33;;;20.00;;
21392;SDS011;10857;52.228;21.026;2023-03-31T07:05:16;33.27;;;20.73;;
21392;SDS011;10857;52.228;21.026;2023-03-31T07:07:47;34.03;;;20.80;;
21392;SDS011;10857;52.228;21.026;2023-03-31T07:10:14;29.90;;;20.47;;
21392;SDS011;10857;52.228;21.026;2023-03-31T07:12:42;37.23;;;20.73;;
21392;SDS011;10857;52.228;21.026;2023-03-31T07:15:09;29.67;;;20.77;;
21392;SDS011;10857;52.228;21.026;2023-03-31T07:17:36;29.07;;;19.27;;
21392;SDS011;10857;52.228;21.026;2023-03-31T07:20:08;29.30;;;19.67;;
21392;SDS011;10857;52.228;21.026;2023-03-31T07:22:38;31.13;;;20.50;;
21392;SDS011;10857;52.228;21.026;2023-03-31T07:25:07;28.90;;;19.73;;
21392;SDS011;10857;52.228;21.026;2023-03-31T07:27:34;31.47;;;20.33;;
21392;SDS011;10857;52.228;21.026;2023-03-31T07:30:05;32.97;;;19.73;;
21392;SDS011;10857;52.228;21.026;2023-03-31T07:32:33;29.73;;;20.13;;
21392;SDS011;10857;52.228;21.026;2023-03-31T07:35:06;30.15;;;22.40;;
21392;SDS011;10857;52.228;21.026;2023-03-31T07:37:37;33.40;;;20.97;;
21392;SDS011;10857;52.228;21.026;2023-03-31T07:40:04;29.77;;;19.93;;
21392;SDS011;10857;52.228;21.026;2023-03-31T07:42:33;34.57;;;21.60;;
21392;SDS011;10857;52.228;21.026;2023-03-31T07:45:01;33.87;;;22.70;;
21392;SDS011;10857;52.228;21.026;2023-03-31T07:47:28;34.97;;;23.17;;
21392;SDS011;10857;52.228;21.026;2023-03-31T07:49:56;35.50;;;21.77;;
21392;SDS011;10857;52.228;21.026;2023-03-31T07:52:23;35.20;;;22.33;;
21392;SDS011;10857;52.228;21.026;2023-03-31T07:54:51;36.03;;;22.27;;
21392;SDS011;10857;52.228;21.026;2023-03-31T07:57:18;35.17;;;22.87;;
21392;SDS011;10857;52.228;21.026;2023-03-31T07:59:46;34.47;;;22.20;;
21392;SDS011;10857;52.228;21.026;2023-03-31T08:02:14;33.23;;;21.63;;
21392;SDS011;10857;52.228;21.026;2023-03-31T08:04:42;40.13;;;24.27;;
21392;SDS011;10857;52.228;21.026;2023-03-31T08:07:11;32.53;;;20.90;;
21392;SDS011;10857;52.228;21.026;2023-03-31T08:09:39;33.57;;;20.13;;
21392;SDS011;10857;52.228;21.026;2023-03-31T08:12:06;34.83;;;19.63;;
21392;SDS011;10857;52.228;21.026;2023-03-31T08:14:33;30.07;;;18.70;;
21392;SDS011;10857;52.228;21.026;2023-03-31T08:17:08;26.57;;;17.17;;
21392;SDS011;10857;52.228;21.026;2023-03-31T08:19:35;27.07;;;17.20;;
21392;SDS011;10857;52.228;21.026;2023-03-31T08:22:03;27.23;;;17.53;;
21392;SDS011;10857;52.228;21.026;2023-03-31T08:24:30;25.03;;;16.80;;
21392;SDS011;10857;52.228;21.026;2023-03-31T08:26:58;28.63;;;17.30;;
21392;SDS011;10857;52.228;21.026;2023-03-31T08:29:25;26.10;;;16.33;;
21392;SDS011;10857;52.228;21.026;2023-03-31T08:31:53;26.80;;;16.40;;
21392;SDS011;10857;52.228;21.026;2023-03-31T08:34:21;27.50;;;15.50;;
21392;SDS011;10857;52.228;21.026;2023-03-31T08:36:48;23.90;;;16.13;;
21392;SDS011;10857;52.228;21.026;2023-03-31T08:39:16;27.90;;;15.90;;
21392;SDS011;10857;52.228;21.026;2023-03-31T08:41:50;28.20;;;16.80;;
21392;SDS011;10857;52.228;21.026;2023-03-31T08:44:21;24.47;;;16.40;;
21392;SDS011;10857;52.228;21.026;2023-03-31T08:46:51;24.40;;;16.43;;
21392;SDS011;10857;52.228;21.026;2023-03-31T08:49:20;26.47;;;17.70;;
21392;SDS011;10857;52.228;21.026;2023-03-31T08:51:50;29.02;;;17.23;;
21392;SDS011;10857;52.228;21.026;2023-03-31T08:54:39;25.37;;;16.87;;
21392;SDS011;10857;52.228;21.026;2023-03-31T09:00:14;22.77;;;14.18;;
21392;SDS011;10857;52.228;21.026;2023-03-31T09:02:44;21.17;;;13.40;;
21392;SDS011;10857;52.228;21.026;2023-03-31T09:05:22;24.17;;;13.65;;
21392;SDS011;10857;52.228;21.026;2023-03-31T09:10:43;19.05;;;12.90;;
21392;SDS011;10857;52.228;21.026;2023-03-31T09:21:18;17.52;;;12.15;;
21392;SDS011;10857;52.228;21.026;2023-03-31T09:23:54;18.02;;;12.23;;
21392;SDS011;10857;52.228;21.026;2023-03-31T09:26:24;18.58;;;11.63;;
21392;SDS011;10857;52.228;21.026;2023-03-31T09:28:53;22.38;;;11.95;;
21392;SDS011;10857;52.228;21.026;2023-03-31T09:31:23;18.77;;;11.77;;
21392;SDS011;10857;52.228;21.026;2023-03-31T09:33:53;18.90;;;11.15;;
21392;SDS011;10857;52.228;21.026;2023-03-31T09:36:25;22.98;;;10.65;;
21392;SDS011;10857;52.228;21.026;2023-03-31T09:38:52;18.35;;;10.77;;
21392;SDS011;10857;52.228;21.026;2023-03-31T09:41:20;17.60;;;10.40;;
21392;SDS011;10857;52.228;21.026;2023-03-31T09:43:47;14.00;;;9.23;;
21392;SDS011;10857;52.228;21.026;2023-03-31T09:49:05;15.98;;;9.05;;
21392;SDS011;10857;52.228;21.026;2023-03-31T09:51:43;14.73;;;8.98;;
21392;SDS011;10857;52.228;21.026;2023-03-31T09:57:05;15.82;;;9.80;;
21392;SDS011;10857;52.228;21.026;2023-03-31T09:59:39;17.25;;;9.50;;
21392;SDS011;10857;52.228;21.026;2023-03-31T10:02:19;21.42;;;10.52;;
21392;SDS011;10857;52.228;21.026;2023-03-31T10:04:47;17.20;;;9.23;;
21392;SDS011;10857;52.228;21.026;2023-03-31T10:07:18;16.40;;;9.18;;
21392;SDS011;10857;52.228;21.026;2023-03-31T10:09:48;15.52;;;8.70;;
21392;SDS011;10857;52.228;21.026;2023-03-31T10:12:18;13.32;;;7.68;;
21392;SDS011;10857;52.228;21.026;2023-03-31T10:14:50;15.77;;;8.20;;
21392;SDS011;10857;52.228;21.026;2023-03-31T10:17:20;16.08;;;8.23;;
21392;SDS011;10857;52.228;21.026;2023-03-31T10:19:50;17.65;;;7.57;;
21392;SDS011;10857;52.228;21.026;2023-03-31T10:24:48;17.48;;;7.07;;
21392;SDS011;10857;52.228;21.026;2023-03-31T10:27:27;14.90;;;6.85;;
21392;SDS011;10857;52.228;21.026;2023-03-31T10:29:57;12.82;;;6.30;;
21392;SDS011;10857;52.228;21.026;2023-03-31T10:35:32;15.95;;;7.28;;
21392;SDS011;10857;52.228;21.026;2023-03-31T10:38:06;14.98;;;6.55;;
21392;SDS011;10857;52.228;21.026;2023-03-31T10:40:40;11.98;;;5.75;;
21392;SDS011;10857;52.228;21.026;2023-03-31T10:43:23;15.35;;;5.18;;
21392;SDS011;10857;52.228;21.026;2023-03-31T10:45:56;11.85;;;5.40;;
21392;SDS011;10857;52.228;21.026;2023-03-31T10:48:28;13.45;;;5.55;;
21392;SDS011;10857;52.228;21.026;2023-03-31T10:50:59;10.32;;;5.18;;
21392;SDS011;10857;52.228;21.026;2023-03-31T10:53:38;11.80;;;4.15;;
21392;SDS011;10857;52.228;21.026;2023-03-31T11:01:51;13.60;;;4.75;;
21392;SDS011;10857;52.228;21.026;2023-03-31T11:16:09;11.20;;;4.40;;
21392;SDS011;10857;52.228;21.026;2023-03-31T11:21:31;9.32;;;4.40;;
21392;SDS011;10857;52.228;21.026;2023-03-31T11:26:54;17.23;;;5.90;;
21392;SDS011;10857;52.228;21.026;2023-03-31T11:32:41;10.25;;;4.93;;
21392;SDS011;10857;52.228;21.026;2023-03-31T11:41:01;10.25;;;5.38;;
21392;SDS011;10857;52.228;21.026;2023-03-31T11:43:53;10.57;;;4.82;;
21392;SDS011;10857;52.228;21.026;2023-03-31T11:46:35;16.65;;;5.07;;
21392;SDS011;10857;52.228;21.026;2023-03-31T11:51:48;9.77;;;5.43;;
21392;SDS011;10857;52.228;21.026;2023-03-31T11:54:30;11.90;;;5.30;;
21392;SDS011;10857;52.228;21.026;2023-03-31T11:57:03;14.02;;;5.60;;
21392;SDS011;10857;52.228;21.026;2023-03-31T11:59:39;13.02;;;5.68;;
21392;SDS011;10857;52.228;21.026;2023-03-31T12:02:11;15.50;;;5.88;;
21392;SDS011;10857;52.228;21.026;2023-03-31T12:04:53;14.65;;;6.05;;
21392;SDS011;10857;52.228;21.026;2023-03-31T12:10:20;13.65;;;6.22;;
21392;SDS011;10857;52.228;21.026;2023-03-31T12:12:53;11.93;;;5.97;;
21392;SDS011;10857;52.228;21.026;2023-03-31T12:18:07;14.30;;;6.10;;
21392;SDS011;10857;52.228;21.026;2023-03-31T12:20:44;14.50;;;6.32;;
21392;SDS011;10857;52.228;21.026;2023-03-31T12:23:22;12.98;;;6.55;;
21392;SDS011;10857;52.228;21.026;2023-03-31T12:28:35;14.95;;;6.38;;
21392;SDS011;10857;52.228;21.026;2023-03-31T12:31:04;13.90;;;6.00;;
21392;SDS011;10857;52.228;21.026;2023-03-31T12:33:38;11.80;;;6.43;;
21392;SDS011;10857;52.228;21.026;2023-03-31T12:48:37;12.27;;;5.55;;
21392;SDS011;10857;52.228;21.026;2023-03-31T12:51:36;14.18;;;6.43;;
21392;SDS011;10857;52.228;21.026;2023-03-31T12:59:33;15.35;;;6.40;;
21392;SDS011;10857;52.228;21.026;2023-03-31T13:04:37;9.43;;;5.28;;
21392;SDS011;10857;52.228;21.026;2023-03-31T13:07:11;12.00;;;6.15;;
21392;SDS011;10857;52.228;21.026;2023-03-31T13:09:55;9.30;;;5.40;;
21392;SDS011;10857;52.228;21.026;2023-03-31T13:12:24;11.32;;;6.13;;
21392;SDS011;10857;52.228;21.026;2023-03-31T13:14:54;10.85;;;5.18;;
21392;SDS011;10857;52.228;21.026;2023-03-31T13:17:26;11.02;;;5.13;;
21392;SDS011;10857;52.228;21.026;2023-03-31T13:22:44;12.13;;;5.18;;
21392;SDS011;10857;52.228;21.026;2023-03-31T13:25:25;9.55;;;5.22;;
21392;SDS011;10857;52.228;21.026;2023-03-31T13:27:53;8.63;;;5.20;;
21392;SDS011;10857;52.228;21.026;2023-03-31T13:33:25;7.28;;;4.50;;
21392;SDS011;10857;52.228;21.026;2023-03-31T13:44:35;11.93;;;4.30;;
21392;SDS011;10857;52.228;21.026;2023-03-31T13:53:10;9.75;;;4.13;;
21392;SDS011;10857;52.228;21.026;2023-03-31T14:07:09;9.15;;;4.07;;
21392;SDS011;10857;52.228;21.026;2023-03-31T14:09:43;12.80;;;3.92;;
21392;SDS011;10857;52.228;21.026;2023-03-31T14:14:58;14.57;;;5.03;;
21392;SDS011;10857;52.228;21.026;2023-03-31T14:17:27;14.52;;;4.38;;
21392;SDS011;10857;52.228;21.026;2023-03-31T14:22:51;26.30;;;8.45;;
21392;SDS011;10857;52.228;21.026;2023-03-31T14:25:35;8.93;;;3.97;;
21392;SDS011;10857;52.228;21.026;2023-03-31T14:31:26;13.73;;;3.65;;
21392;SDS011;10857;52.228;21.026;2023-03-31T14:34:11;12.10;;;3.75;;
21392;SDS011;10857;52.228;21.026;2023-03-31T14:36:47;7.30;;;3.65;;
21392;SDS011;10857;52.228;21.026;2023-03-31T14:39:25;9.27;;;3.72;;
21392;SDS011;10857;52.228;21.026;2023-03-31T14:42:01;8.07;;;4.18;;
21392;SDS011;10857;52.228;21.026;2023-03-31T14:44:36;8.88;;;4.55;;
21392;SDS011;10857;52.228;21.026;2023-03-31T14:47:04;9.10;;;4.10;;
21392;SDS011;10857;52.228;21.026;2023-03-31T14:49:35;11.07;;;4.07;;
21392;SDS011;10857;52.228;21.026;2023-03-31T14:52:11;10.07;;;4.60;;
21392;SDS011;10857;52.228;21.026;2023-03-31T14:54:40;9.05;;;4.95;;
21392;SDS011;10857;52.228;21.026;2023-03-31T14:57:09;11.73;;;5.60;;
21392;SDS011;10857;52.228;21.026;2023-03-31T14:59:38;8.65;;;4.15;;
21392;SDS011;10857;52.228;21.026;2023-03-31T15:02:06;10.82;;;4.60;;
21392;SDS011;10857;52.228;21.026;2023-03-31T15:04:45;10.27;;;4.68;;
21392;SDS011;10857;52.228;21.026;2023-03-31T15:07:14;11.15;;;4.35;;
21392;SDS011;10857;52.228;21.026;2023-03-31T15:09:43;12.43;;;4.40;;
21392;SDS011;10857;52.228;21.026;2023-03-31T15:12:17;11.35;;;4.70;;
21392;SDS011;10857;52.228;21.026;2023-03-31T15:14:48;11.13;;;4.30;;
21392;SDS011;10857;52.228;21.026;2023-03-31T15:17:23;9.05;;;4.28;;
21392;SDS011;10857;52.228;21.026;2023-03-31T15:19:58;11.05;;;4.20;;
21392;SDS011;10857;52.228;21.026;2023-03-31T15:22:27;10.40;;;4.53;;
21392;SDS011;10857;52.228;21.026;2023-03-31T15:24:55;9.98;;;4.03;;
21392;SDS011;10857;52.228;21.026;2023-03-31T15:30:22;10.88;;;4.22;;
21392;SDS011;10857;52.228;21.026;2023-03-31T15:32:51;15.23;;;9.52;;
21392;SDS011;10857;52.228;21.026;2023-03-31T15:35:30;7.18;;;3.80;;
21392;SDS011;10857;52.228;21.026;2023-03-31T15:37:59;6.18;;;3.60;;
21392;SDS011;10857;52.228;21.026;2023-03-31T15:40:30;5.93;;;3.47;;
21392;SDS011;10857;52.228;21.026;2023-03-31T15:43:05;4.30;;;3.60;;
21392;SDS011;10857;52.228;21.026;2023-03-31T15:45:54;3.63;;;3.20;;
21392;SDS011;10857;52.228;21.026;2023-03-31T15:48:32;4.38;;;3.30;;
21392;SDS011;10857;52.228;21.026;2023-03-31T15:51:16;3.28;;;2.97;;
21392;SDS011;10857;52.228;21.026;2023-03-31T15:53:52;3.83;;;3.10;;
21392;SDS011;10857;52.228;21.026;2023-03-31T15:56:23;3.75;;;3.13;;
21392;SDS011;10857;52.228;21.026;2023-03-31T15:59:01;3.88;;;3.25;;
21392;SDS011;10857;52.228;21.026;2023-03-31T16:01:30;6.00;;;3.58;;
21392;SDS011;10857;52.228;21.026;2023-03-31T16:04:11;4.70;;;3.13;;
21392;SDS011;10857;52.228;21.026;2023-03-31T16:09:16;3.80;;;2.85;;
21392;SDS011;10857;52.228;21.026;2023-03-31T16:11:57;3.17;;;2.72;;
21392;SDS011;10857;52.228;21.026;2023-03-31T16:17:00;3.05;;;2.67;;
21392;SDS011;10857;52.228;21.026;2023-03-31T16:19:42;3.55;;;3.17;;
21392;SDS011;10857;52.228;21.026;2023-03-31T16:22:17;5.72;;;3.30;;
21392;SDS011;10857;52.228;21.026;2023-03-31T16:24:47;4.55;;;2.70;;
21392;SDS011;10857;52.228;21.026;2023-03-31T16:27:15;4.10;;;3.00;;
21392;SDS011;10857;52.228;21.026;2023-03-31T16:29:43;3.20;;;2.63;;
21392;SDS011;10857;52.228;21.026;2023-03-31T16:34:55;3.35;;;2.30;;
21392;SDS011;10857;52.228;21.026;2023-03-31T16:37:24;2.85;;;2.15;;
21392;SDS011;10857;52.228;21.026;2023-03-31T16:39:51;3.38;;;2.53;;
21392;SDS011;10857;52.228;21.026;2023-03-31T16:42:19;5.43;;;2.67;;
21392;SDS011;10857;52.228;21.026;2023-03-31T16:44:46;4.35;;;2.55;;
21392;SDS011;10857;52.228;21.026;2023-03-31T16:47:36;3.75;;;2.30;;
21392;SDS011;10857;52.228;21.026;2023-03-31T16:50:04;4.78;;;3.10;;
21392;SDS011;10857;52.228;21.026;2023-03-31T16:52:33;8.82;;;5.82;;
21392;SDS011;10857;52.228;21.026;2023-03-31T16:55:01;5.35;;;3.10;;
21392;SDS011;10857;52.228;21.026;2023-03-31T16:57:28;3.83;;;2.72;;
21392;SDS011;10857;52.228;21.026;2023-03-31T16:59:58;3.92;;;2.63;;
21392;SDS011;10857;52.228;21.026;2023-03-31T17:02:26;4.40;;;3.00;;
21392;SDS011;10857;52.228;21.026;2023-03-31T17:04:54;6.25;;;2.92;;
21392;SDS011;10857;52.228;21.026;2023-03-31T17:10:19;4.80;;;2.50;;
21392;SDS011;10857;52.228;21.026;2023-03-31T17:12:50;3.40;;;2.50;;
21392;SDS011;10857;52.228;21.026;2023-03-31T17:15:17;3.22;;;2.33;;
21392;SDS011;10857;52.228;21.026;2023-03-31T17:17:45;4.00;;;2.30;;
21392;SDS011;10857;52.228;21.026;2023-03-31T17:20:13;5.38;;;2.40;;
21392;SDS011;10857;52.228;21.026;2023-03-31T17:22:40;4.15;;;2.42;;
21392;SDS011;10857;52.228;21.026;2023-03-31T17:25:08;5.07;;;2.83;;
21392;SDS011;10857;52.228;21.026;2023-03-31T17:27:37;4.90;;;2.38;;
21392;SDS011;10857;52.228;21.026;2023-03-31T17:30:05;3.35;;;2.80;;
21392;SDS011;10857;52.228;21.026;2023-03-31T17:32:34;6.82;;;3.97;;
21392;SDS011;10857;52.228;21.026;2023-03-31T17:35:02;6.40;;;4.05;;
21392;SDS011;10857;52.228;21.026;2023-03-31T17:37:31;7.90;;;4.75;;
21392;SDS011;10857;52.228;21.026;2023-03-31T17:39:59;4.22;;;3.30;;
21392;SDS011;10857;52.228;21.026;2023-03-31T17:42:26;4.75;;;3.40;;
21392;SDS011;10857;52.228;21.026;2023-03-31T17:44:53;8.63;;;4.35;;
21392;SDS011;10857;52.228;21.026;2023-03-31T17:47:22;7.28;;;4.50;;
21392;SDS011;10857;52.228;21.026;2023-03-31T17:49:49;8.88;;;5.47;;
21392;SDS011;10857;52.228;21.026;2023-03-31T17:52:16;8.68;;;6.10;;
21392;SDS011;10857;52.228;21.026;2023-03-31T17:54:43;10.75;;;6.47;;
21392;SDS011;10857;52.228;21.026;2023-03-31T17:57:10;10.30;;;7.07;;
21392;SDS011;10857;52.228;21.026;2023-03-31T17:59:40;11.70;;;7.47;;
21392;SDS011;10857;52.228;21.026;2023-03-31T18:02:10;11.85;;;7.57;;
21392;SDS011;10857;52.228;21.026;2023-03-31T18:04:41;14.23;;;8.53;;
21392;SDS011;10857;52.228;21.026;2023-03-31T18:07:08;11.77;;;8.02;;
21392;SDS011;10857;52.228;21.026;2023-03-31T18:09:36;13.60;;;8.77;;
21392;SDS011;10857;52.228;21.026;2023-03-31T18:12:05;13.70;;;8.70;;
21392;SDS011;10857;52.228;21.026;2023-03-31T18:14:32;13.73;;;9.27;;
21392;SDS011;10857;52.228;21.026;2023-03-31T18:16:59;15.57;;;9.52;;
21392;SDS011;10857;52.228;21.026;2023-03-31T18:19:27;14.80;;;10.07;;
21392;SDS011;10857;52.228;21.026;2023-03-31T18:21:55;15.70;;;9.83;;
21392;SDS011;10857;52.228;21.026;2023-03-31T18:24:22;16.98;;;10.65;;
21392;SDS011;10857;52.228;21.026;2023-03-31T18:26:49;16.80;;;10.13;;
21392;SDS011;10857;52.228;21.026;2023-03-31T18:29:16;15.40;;;10.05;;
21392;SDS011;10857;52.228;21.026;2023-03-31T18:31:43;19.70;;;11.63;;
21392;SDS011;10857;52.228;21.026;2023-03-31T18:34:10;26.73;;;17.58;;
21392;SDS011;10857;52.228;21.026;2023-03-31T18:36:38;16.35;;;10.80;;
21392;SDS011;10857;52.228;21.026;2023-03-31T18:39:06;15.77;;;10.13;;
21392;SDS011;10857;52.228;21.026;2023-03-31T18:41:33;14.60;;;10.47;;
21392;SDS011;10857;52.228;21.026;2023-03-31T18:44:00;17.97;;;11.63;;
21392;SDS011;10857;52.228;21.026;2023-03-31T18:46:27;17.08;;;10.77;;
21392;SDS011;10857;52.228;21.026;2023-03-31T18:48:54;16.53;;;10.27;;
21392;SDS011;10857;52.228;21.026;2023-03-31T18:51:22;16.50;;;10.77;;
21392;SDS011;10857;52.228;21.026;2023-03-31T18:53:49;16.05;;;9.60;;
21392;SDS011;10857;52.228;21.026;2023-03-31T18:56:16;13.15;;;8.43;;
21392;SDS011;10857;52.228;21.026;2023-03-31T18:58:44;12.15;;;8.40;;
21392;SDS011;10857;52.228;21.026;2023-03-31T19:01:12;13.65;;;8.57;;
21392;SDS011;10857;52.228;21.026;2023-03-31T19:03:42;13.00;;;8.40;;
21392;SDS011;10857;52.228;21.026;2023-03-31T19:06:10;12.63;;;7.82;;
21392;SDS011;10857;52.228;21.026;2023-03-31T19:08:37;13.25;;;7.50;;
21392;SDS011;10857;52.228;21.026;2023-03-31T19:11:09;10.87;;;7.00;;
21392;SDS011;10857;52.228;21.026;2023-03-31T19:13:38;27.10;;;16.13;;
21392;SDS011;10857;52.228;21.026;2023-03-31T19:16:07;22.45;;;13.13;;
21392;SDS011;10857;52.228;21.026;2023-03-31T19:18:35;23.40;;;14.82;;
21392;SDS011;10857;52.228;21.026;2023-03-31T19:21:02;18.08;;;10.45;;
21392;SDS011;10857;52.228;21.026;2023-03-31T19:23:30;13.95;;;9.40;;
21392;SDS011;10857;52.228;21.026;2023-03-31T19:25:58;13.15;;;8.98;;
21392;SDS011;10857;52.228;21.026;2023-03-31T19:28:26;16.30;;;8.80;;
21392;SDS011;10857;52.228;21.026;2023-03-31T19:30:55;14.10;;;7.95;;
21392;SDS011;10857;52.228;21.026;2023-03-31T19:33:23;14.20;;;8.65;;
21392;SDS011;10857;52.228;21.026;2023-03-31T19:35:52;15.10;;;9.45;;
21392;SDS011;10857;52.228;21.026;2023-03-31T19:38:20;18.25;;;10.98;;
21392;SDS011;10857;52.228;21.026;2023-03-31T19:40:48;20.20;;;11.05;;
21392;SDS011;10857;52.228;21.026;2023-03-31T19:43:17;16.20;;;11.02;;
21392;SDS011;10857;52.228;21.026;2023-03-31T19:45:47;18.30;;;12.18;;
21392;SDS011;10857;52.228;21.026;2023-03-31T19:48:16;18.55;;;12.98;;
21392;SDS011;10857;52.228;21.026;2023-03-31T19:50:51;20.95;;;12.55;;
21392;SDS011;10857;52.228;21.026;2023-03-31T19:53:19;23.05;;;13.55;;
21392;SDS011;10857;52.228;21.026;2023-03-31T19:55:56;20.92;;;12.70;;
21392;SDS011;10857;52.228;21.026;2023-03-31T19:58:24;16.40;;;9.77;;
21392;SDS011;10857;52.228;21.026;2023-03-31T20:00:52;17.92;;;10.80;;
21392;SDS011;10857;52.228;21.026;2023-03-31T20:03:21;19.05;;;11.65;;
21392;SDS011;10857;52.228;21.026;2023-03-31T20:05:49;15.75;;;11.40;;
21392;SDS011;10857;52.228;21.026;2023-03-31T20:08:22;17.73;;;11.82;;
21392;SDS011;10857;52.228;21.026;2023-03-31T20:10:49;17.05;;;10.80;;
21392;SDS011;10857;52.228;21.026;2023-03-31T20:13:17;18.13;;;11.55;;
21392;SDS011;10857;52.228;21.026;2023-03-31T20:15:44;14.50;;;11.23;;
21392;SDS011;10857;52.228;21.026;2023-03-31T20:18:12;17.77;;;12.55;;
21392;SDS011;10857;52.228;21.026;2023-03-31T20:20:39;18.57;;;12.90;;
21392;SDS011;10857;52.228;21.026;2023-03-31T20:23:07;21.33;;;14.18;;
21392;SDS011;10857;52.228;21.026;2023-03-31T20:25:35;20.90;;;15.10;;
21392;SDS011;10857;52.228;21.026;2023-03-31T20:28:03;25.55;;;14.88;;
21392;SDS011;10857;52.228;21.026;2023-03-31T20:30:30;21.77;;;15.32;;
21392;SDS011;10857;52.228;21.026;2023-03-31T20:32:58;22.90;;;15.77;;
21392;SDS011;10857;52.228;21.026;2023-03-31T20:35:25;26.90;;;17.95;;
21392;SDS011;10857;52.228;21.026;2023-03-31T20:37:53;27.35;;;16.42;;
21392;SDS011;10857;52.228;21.026;2023-03-31T20:40:21;23.92;;;15.95;;
21392;SDS011;10857;52.228;21.026;2023-03-31T20:42:48;24.58;;;16.17;;
21392;SDS011;10857;52.228;21.026;2023-03-31T20:45:16;40.50;;;26.58;;
21392;SDS011;10857;52.228;21.026;2023-03-31T20:47:43;34.70;;;23.45;;
21392;SDS011;10857;52.228;21.026;2023-03-31T20:50:12;30.08;;;21.00;;
21392;SDS011;10857;52.228;21.026;2023-03-31T20:52:40;27.52;;;16.30;;
21392;SDS011;10857;52.228;21.026;2023-03-31T20:55:08;26.13;;;15.60;;
21392;SDS011;10857;52.228;21.026;2023-03-31T20:57:36;21.27;;;15.30;;
21392;SDS011;10857;52.228;21.026;2023-03-31T21:00:03;24.05;;;16.33;;
21392;SDS011;10857;52.228;21.026;2023-03-31T21:02:33;25.33;;;15.88;;
